»·PEaware :: SWA187 KPSP-KSBA

SWA187 :: KPSP-KSBA

FLIGHT INFORMATION

Flight Status: Arrived
Operator:
Southwest Airlines
More flights by this operator :: More flights under this callsign
Pilot: Nehseem A. (13724)
Aircraft: BOEING 737-200
(B732)
More flights by this aircraft type
Origin: KPSP Palm Springs Intl
United States
Destination: KSBA Santa Barbara Mun
United States
More flights between these airports :: More routes between these airports
Route: CATH1 PSP V388 DEWAY POM VNY V186 DEANO V27 KWANG
File this flight plan on PilotEdge
Remarks: PSPP17 TEC Route
Altitude:
(Current/Filed)
12,000ft
Speed:
(Current/Filed)
349kts
Departed: 11-Jan-21 06:44 PM
Arrived: 11-Jan-21 07:29 PM
Distance/Time
Traveled:
169nm/0:44
Distance/Time
To Go:
Arrived

Flight Plot

Page will automatically refresh every two minutes.

Flight plan parsing failed; only flown route is shown


Map Options




Map Legend


Flown Route
Filed Route
Departure Airport
Arrival Airport
Navaid (VOR, NDB)
Fix

Horizontal Profiles

Position Reports

Time Latitude Longitude Heading Altitude Ground
Speed
11-Jan-21 18:18 33.823879 -116.506542 194 417ft 0kts
11-Jan-21 18:19 33.823879 -116.506542 194 417ft 0kts
11-Jan-21 18:19 33.823879 -116.506542 194 417ft 0kts
11-Jan-21 18:20 33.823879 -116.506542 194 417ft 0kts
11-Jan-21 18:21 33.823879 -116.506542 194 417ft 0kts
11-Jan-21 18:23 33.823879 -116.506542 194 417ft 0kts
11-Jan-21 18:23 33.823879 -116.506542 194 417ft 0kts
11-Jan-21 18:24 33.823879 -116.506542 194 417ft 0kts
11-Jan-21 18:25 33.823879 -116.506542 194 417ft 0kts
11-Jan-21 18:26 33.823879 -116.506542 194 417ft 0kts
11-Jan-21 18:27 33.823879 -116.506542 194 417ft 0kts
11-Jan-21 18:28 33.823933 -116.506522 203 417ft 2kts
11-Jan-21 18:29 33.824481 -116.506229 203 418ft 2kts
11-Jan-21 18:30 33.824766 -116.506193 142 418ft 0kts
11-Jan-21 18:31 33.824766 -116.506193 142 418ft 0kts
11-Jan-21 18:32 33.824766 -116.506193 142 418ft 0kts
11-Jan-21 18:33 33.824766 -116.506193 142 418ft 0kts
11-Jan-21 18:34 33.824766 -116.506193 142 418ft 0kts
11-Jan-21 18:35 33.824766 -116.506193 142 418ft 0kts
11-Jan-21 18:36 33.824190 -116.505703 143 417ft 9kts
11-Jan-21 18:37 33.821716 -116.502621 142 409ft 15kts
11-Jan-21 18:38 33.818525 -116.499214 91 401ft 10kts
11-Jan-21 18:39 33.818520 -116.499015 91 400ft 0kts
11-Jan-21 18:40 33.818520 -116.499015 91 400ft 0kts
11-Jan-21 18:41 33.818520 -116.499015 91 400ft 0kts
11-Jan-21 18:42 33.819115 -116.498264 324 399ft 9kts
11-Jan-21 18:43 33.842334 -116.518750 324 1109ft 183kts
11-Jan-21 18:44 33.882342 -116.557555 321 3567ft 209kts
11-Jan-21 18:45 33.930087 -116.543064 71 5891ft 241kts
11-Jan-21 18:46 33.952972 -116.471504 29 8626ft 233kts
11-Jan-21 18:47 34.000664 -116.503819 281 10988ft 253kts
11-Jan-21 18:48 33.991293 -116.596738 253 12008ft 322kts
11-Jan-21 18:49 33.952392 -116.704108 250 12106ft 366kts
11-Jan-21 18:50 33.912407 -116.821082 253 12017ft 387kts
11-Jan-21 18:51 33.874221 -116.943474 251 12078ft 387kts
11-Jan-21 18:52 33.840579 -117.062638 278 11982ft 358kts
11-Jan-21 18:53 33.878146 -117.167073 302 11948ft 332kts
11-Jan-21 18:54 33.922925 -117.263489 300 11948ft 329kts
11-Jan-21 18:55 33.957633 -117.365417 291 12025ft 328kts
11-Jan-21 18:56 33.983962 -117.471772 290 12006ft 332kts
11-Jan-21 18:57 34.013665 -117.577100 294 11998ft 333kts
11-Jan-21 18:58 34.046461 -117.682472 293 11999ft 335kts
11-Jan-21 18:59 34.078805 -117.788184 295 12007ft 336kts
11-Jan-21 19:00 34.068511 -117.899117 281 12007ft 339kts
11-Jan-21 19:01 34.099106 -118.003412 287 11996ft 336kts
11-Jan-21 19:02 34.116708 -118.115864 283 11990ft 340kts
11-Jan-21 19:03 34.133325 -118.229117 283 11991ft 343kts
11-Jan-21 19:04 34.150088 -118.342819 284 11991ft 344kts
11-Jan-21 19:05 34.175145 -118.452650 315 11984ft 334kts
11-Jan-21 19:06 34.243448 -118.525584 295 11990ft 338kts
11-Jan-21 19:07 34.265697 -118.633029 305 11997ft 334kts
11-Jan-21 19:08 34.299596 -118.739504 294 12004ft 339kts
11-Jan-21 19:09 34.335095 -118.845145 295 12010ft 340kts
11-Jan-21 19:10 34.370700 -118.951050 293 12005ft 331kts
11-Jan-21 19:11 34.401172 -119.047153 290 11666ft 287kts
11-Jan-21 19:12 34.430579 -119.136990 271 9845ft 293kts
11-Jan-21 19:13 34.399763 -119.226986 239 8885ft 270kts
11-Jan-21 19:14 34.357741 -119.291145 233 9296ft 220kts
11-Jan-21 19:15 34.313875 -119.351973 231 8399ft 250kts
11-Jan-21 19:16 34.268306 -119.415411 234 7510ft 246kts
11-Jan-21 19:17 34.223327 -119.478803 235 6261ft 249kts
11-Jan-21 19:18 34.207542 -119.556866 268 5030ft 244kts
11-Jan-21 19:19 34.239743 -119.626523 301 4027ft 232kts
11-Jan-21 19:20 34.288746 -119.668570 14 2888ft 242kts
11-Jan-21 19:21 34.324475 -119.604342 66 2082ft 233kts
11-Jan-21 19:22 34.368542 -119.587532 290 2223ft 189kts
11-Jan-21 19:23 34.380108 -119.646712 280 1895ft 169kts
11-Jan-21 19:24 34.387866 -119.700671 280 2331ft 135kts
11-Jan-21 19:25 34.400050 -119.746349 294 1617ft 133kts
11-Jan-21 19:26 34.414819 -119.786558 296 752ft 125kts
11-Jan-21 19:27 34.427991 -119.825748 270 265ft 128kts
11-Jan-21 19:28 34.427583 -119.850130 268 19ft 23kts
11-Jan-21 19:29 34.426620 -119.851683 137 19ft 0kts
11-Jan-21 19:30 34.426426 -119.851068 86 19ft 6kts
11-Jan-21 19:31 34.426516 -119.847486 88 19ft 14kts
11-Jan-21 19:32 34.426655 -119.840601 88 19ft 25kts
11-Jan-21 19:33 34.425162 -119.837315 115 16ft 3kts

Navigation Log

Ident Type
Flight plan parsing failed, navigation log unavailable